< < Back
Terminal Aerodrome Forecast


Current Version              Previous Versions:   1  2  3  4  5  6  7  8  9  

Terminal Aerodrome Forecast

549
FTUS44 KHUN 301720
TAFHSV
TAF
KHSV 301720Z 3018/0118 VRB03KT P6SM SCT030
     FM010100 VRB02KT P6SM SCT250
      TEMPO 0110/0113 5SM BR
     FM011500 16004KT P6SM SCT250=

Latest METAR

634
SAUS80 KWBC 302200
MTRHSV
METAR KHSV 302153Z 30005KT 10SM FEW055 SCT250 30/13 A2988 RMK AO2 SLP110
T03000133


USA.gov is the U.S. government's official web portal to all federal, state and local government web resources and services.